sensor_id;sensor_type;location;lat;lon;timestamp;pressure;altitude;pressure_sealevel;temperature;humidity
37856;BME280;23694;43.274;26.924;2023-08-06T00:01:53;97695.53;;;22.54;100.00
37856;BME280;23694;43.274;26.924;2023-08-06T00:07:33;97693.69;;;22.48;100.00
37856;BME280;23694;43.274;26.924;2023-08-06T00:10:06;97695.16;;;22.44;100.00
37856;BME280;23694;43.274;26.924;2023-08-06T00:12:53;97689.66;;;22.32;100.00
37856;BME280;23694;43.274;26.924;2023-08-06T00:15:32;97691.50;;;22.32;100.00
37856;BME280;23694;43.274;26.924;2023-08-06T00:18:15;97698.03;;;22.42;100.00
37856;BME280;23694;43.274;26.924;2023-08-06T00:20:49;97691.69;;;22.37;100.00
37856;BME280;23694;43.274;26.924;2023-08-06T00:23:25;97689.03;;;22.30;100.00
37856;BME280;23694;43.274;26.924;2023-08-06T00:26:08;97690.88;;;22.30;100.00
37856;BME280;23694;43.274;26.924;2023-08-06T00:28:49;97689.47;;;22.21;100.00
37856;BME280;23694;43.274;26.924;2023-08-06T00:31:19;97685.56;;;22.30;100.00
37856;BME280;23694;43.274;26.924;2023-08-06T00:33:49;97680.84;;;22.25;100.00
37856;BME280;23694;43.274;26.924;2023-08-06T00:36:37;97670.75;;;22.34;100.00
37856;BME280;23694;43.274;26.924;2023-08-06T00:39:11;97669.94;;;22.33;100.00
37856;BME280;23694;43.274;26.924;2023-08-06T00:41:48;97661.31;;;22.38;100.00
37856;BME280;23694;43.274;26.924;2023-08-06T00:44:43;97650.41;;;22.46;100.00
37856;BME280;23694;43.274;26.924;2023-08-06T00:47:20;97659.41;;;22.52;100.00
37856;BME280;23694;43.274;26.924;2023-08-06T00:49:55;97657.41;;;22.40;100.00
37856;BME280;23694;43.274;26.924;2023-08-06T00:52:36;97647.56;;;22.34;100.00
37856;BME280;23694;43.274;26.924;2023-08-06T00:55:22;97657.63;;;22.32;100.00
37856;BME280;23694;43.274;26.924;2023-08-06T00:57:57;97657.22;;;22.35;100.00
37856;BME280;23694;43.274;26.924;2023-08-06T01:00:29;97663.38;;;22.36;100.00
37856;BME280;23694;43.274;26.924;2023-08-06T01:03:04;97659.69;;;22.30;100.00
37856;BME280;23694;43.274;26.924;2023-08-06T01:05:43;97653.75;;;22.28;100.00
37856;BME280;23694;43.274;26.924;2023-08-06T01:11:31;97658.03;;;22.36;100.00
37856;BME280;23694;43.274;26.924;2023-08-06T01:14:33;97644.28;;;22.39;100.00
37856;BME280;23694;43.274;26.924;2023-08-06T01:17:22;97639.38;;;22.36;100.00
37856;BME280;23694;43.274;26.924;2023-08-06T01:20:02;97629.97;;;22.20;100.00
37856;BME280;23694;43.274;26.924;2023-08-06T01:22:48;97626.91;;;22.10;100.00
37856;BME280;23694;43.274;26.924;2023-08-06T01:25:49;97614.19;;;22.19;100.00
37856;BME280;23694;43.274;26.924;2023-08-06T01:31:43;97621.72;;;22.35;100.00
37856;BME280;23694;43.274;26.924;2023-08-06T01:34:28;97624.97;;;22.43;100.00
37856;BME280;23694;43.274;26.924;2023-08-06T01:37:11;97614.44;;;22.55;100.00
37856;BME280;23694;43.274;26.924;2023-08-06T01:39:44;97612.09;;;22.72;100.00
37856;BME280;23694;43.274;26.924;2023-08-06T01:42:18;97617.09;;;22.55;100.00
37856;BME280;23694;43.274;26.924;2023-08-06T01:44:58;97616.84;;;22.25;100.00
37856;BME280;23694;43.274;26.924;2023-08-06T01:50:16;97615.13;;;22.37;100.00
37856;BME280;23694;43.274;26.924;2023-08-06T01:52:57;97606.13;;;22.32;100.00
37856;BME280;23694;43.274;26.924;2023-08-06T01:55:30;97605.22;;;22.51;100.00
37856;BME280;23694;43.274;26.924;2023-08-06T01:58:07;97609.88;;;22.62;100.00
37856;BME280;23694;43.274;26.924;2023-08-06T02:00:43;97606.53;;;22.73;100.00
37856;BME280;23694;43.274;26.924;2023-08-06T02:03:17;97609.63;;;22.77;100.00
37856;BME280;23694;43.274;26.924;2023-08-06T02:06:00;97616.59;;;22.71;100.00
37856;BME280;23694;43.274;26.924;2023-08-06T02:08:44;97617.00;;;22.75;100.00
37856;BME280;23694;43.274;26.924;2023-08-06T02:11:14;97602.94;;;22.55;100.00
37856;BME280;23694;43.274;26.924;2023-08-06T02:13:48;97597.34;;;22.63;100.00
37856;BME280;23694;43.274;26.924;2023-08-06T02:16:27;97598.03;;;22.52;100.00
37856;BME280;23694;43.274;26.924;2023-08-06T02:19:39;97605.00;;;22.53;100.00
37856;BME280;23694;43.274;26.924;2023-08-06T02:22:15;97600.06;;;22.56;100.00
37856;BME280;23694;43.274;26.924;2023-08-06T02:25:01;97598.00;;;22.58;100.00
37856;BME280;23694;43.274;26.924;2023-08-06T02:27:54;97606.34;;;22.68;100.00
37856;BME280;23694;43.274;26.924;2023-08-06T02:30:33;97601.09;;;22.55;100.00
37856;BME280;23694;43.274;26.924;2023-08-06T02:33:09;97600.53;;;22.46;100.00
37856;BME280;23694;43.274;26.924;2023-08-06T02:35:45;97599.31;;;22.42;100.00
37856;BME280;23694;43.274;26.924;2023-08-06T02:38:17;97593.31;;;22.54;100.00
37856;BME280;23694;43.274;26.924;2023-08-06T02:40:52;97594.34;;;22.53;100.00
37856;BME280;23694;43.274;26.924;2023-08-06T02:43:24;97603.72;;;22.62;100.00
37856;BME280;23694;43.274;26.924;2023-08-06T02:45:57;97615.63;;;22.66;100.00
37856;BME280;23694;43.274;26.924;2023-08-06T02:48:32;97604.50;;;22.82;100.00
37856;BME280;23694;43.274;26.924;2023-08-06T02:51:02;97602.38;;;22.91;100.00
37856;BME280;23694;43.274;26.924;2023-08-06T02:53:35;97606.59;;;23.05;100.00
37856;BME280;23694;43.274;26.924;2023-08-06T02:56:20;97607.97;;;23.14;100.00
37856;BME280;23694;43.274;26.924;2023-08-06T02:58:55;97607.97;;;23.14;100.00
37856;BME280;23694;43.274;26.924;2023-08-06T03:01:35;97601.41;;;23.10;100.00
37856;BME280;23694;43.274;26.924;2023-08-06T03:04:15;97611.63;;;23.20;100.00
37856;BME280;23694;43.274;26.924;2023-08-06T03:06:59;97608.06;;;23.26;100.00
37856;BME280;23694;43.274;26.924;2023-08-06T03:12:28;97611.06;;;23.36;100.00
37856;BME280;23694;43.274;26.924;2023-08-06T03:15:07;97618.94;;;23.31;100.00
37856;BME280;23694;43.274;26.924;2023-08-06T03:17:50;97612.75;;;23.30;100.00
37856;BME280;23694;43.274;26.924;2023-08-06T03:20:20;97609.66;;;23.33;100.00
37856;BME280;23694;43.274;26.924;2023-08-06T03:22:57;97608.59;;;23.41;100.00
37856;BME280;23694;43.274;26.924;2023-08-06T03:25:42;97603.84;;;23.43;100.00
37856;BME280;23694;43.274;26.924;2023-08-06T03:28:22;97601.72;;;23.52;100.00
37856;BME280;23694;43.274;26.924;2023-08-06T03:31:02;97604.44;;;23.70;100.00
37856;BME280;23694;43.274;26.924;2023-08-06T03:33:43;97598.22;;;23.76;100.00
37856;BME280;23694;43.274;26.924;2023-08-06T03:36:21;97596.75;;;23.98;98.31
37856;BME280;23694;43.274;26.924;2023-08-06T03:38:49;97584.66;;;24.14;97.87
37856;BME280;23694;43.274;26.924;2023-08-06T03:41:21;97579.09;;;24.34;96.51
37856;BME280;23694;43.274;26.924;2023-08-06T03:43:52;97576.38;;;24.52;95.80
37856;BME280;23694;43.274;26.924;2023-08-06T03:46:41;97580.44;;;24.73;94.41
37856;BME280;23694;43.274;26.924;2023-08-06T03:49:20;97584.28;;;25.07;92.67
37856;BME280;23694;43.274;26.924;2023-08-06T03:51:47;97590.47;;;25.31;90.62
37856;BME280;23694;43.274;26.924;2023-08-06T03:54:24;97592.84;;;25.51;89.24
37856;BME280;23694;43.274;26.924;2023-08-06T03:57:04;97585.63;;;25.86;86.81
37856;BME280;23694;43.274;26.924;2023-08-06T03:59:47;97586.53;;;26.15;83.84
37856;BME280;23694;43.274;26.924;2023-08-06T04:02:21;97585.91;;;26.37;82.15
37856;BME280;23694;43.274;26.924;2023-08-06T04:04:50;97599.16;;;26.55;80.54
37856;BME280;23694;43.274;26.924;2023-08-06T04:07:21;97596.47;;;26.67;79.73
37856;BME280;23694;43.274;26.924;2023-08-06T04:10:07;97594.72;;;26.89;77.95
37856;BME280;23694;43.274;26.924;2023-08-06T04:12:37;97595.25;;;27.03;77.38
37856;BME280;23694;43.274;26.924;2023-08-06T04:15:09;97590.13;;;27.18;75.95
37856;BME280;23694;43.274;26.924;2023-08-06T04:17:53;97587.22;;;27.36;75.04
37856;BME280;23694;43.274;26.924;2023-08-06T04:20:45;97580.63;;;27.61;74.19
37856;BME280;23694;43.274;26.924;2023-08-06T04:23:21;97580.53;;;27.72;73.55
37856;BME280;23694;43.274;26.924;2023-08-06T04:25:59;97584.09;;;27.28;74.80
37856;BME280;23694;43.274;26.924;2023-08-06T04:28:32;97577.94;;;27.61;74.82
37856;BME280;23694;43.274;26.924;2023-08-06T04:31:05;97581.16;;;27.79;73.10
37856;BME280;23694;43.274;26.924;2023-08-06T04:33:45;97577.03;;;27.38;75.46
37856;BME280;23694;43.274;26.924;2023-08-06T04:36:20;97568.97;;;27.38;76.58
37856;BME280;23694;43.274;26.924;2023-08-06T04:38:53;97569.44;;;27.19;78.44
37856;BME280;23694;43.274;26.924;2023-08-06T04:41:23;97556.75;;;27.47;76.07
37856;BME280;23694;43.274;26.924;2023-08-06T04:43:50;97552.09;;;27.43;77.22
37856;BME280;23694;43.274;26.924;2023-08-06T04:46:22;97556.81;;;27.69;75.08
37856;BME280;23694;43.274;26.924;2023-08-06T04:49:04;97546.53;;;28.05;73.28
37856;BME280;23694;43.274;26.924;2023-08-06T04:51:43;97541.78;;;26.73;79.99
37856;BME280;23694;43.274;26.924;2023-08-06T04:54:36;97532.69;;;25.58;85.66
37856;BME280;23694;43.274;26.924;2023-08-06T04:57:18;97536.75;;;25.26;89.52
37856;BME280;23694;43.274;26.924;2023-08-06T04:59:46;97528.88;;;27.03;81.01
37856;BME280;23694;43.274;26.924;2023-08-06T05:02:14;97537.34;;;28.01;75.30
37856;BME280;23694;43.274;26.924;2023-08-06T05:04:55;97533.38;;;26.41;80.88
37856;BME280;23694;43.274;26.924;2023-08-06T05:07:39;97531.13;;;26.09;84.37
37856;BME280;23694;43.274;26.924;2023-08-06T05:10:17;97536.31;;;26.68;80.96
37856;BME280;23694;43.274;26.924;2023-08-06T05:12:53;97538.31;;;27.23;77.29
37856;BME280;23694;43.274;26.924;2023-08-06T05:15:26;97545.41;;;28.23;72.81
37856;BME280;23694;43.274;26.924;2023-08-06T05:18:00;97539.22;;;27.11;76.91
37856;BME280;23694;43.274;26.924;2023-08-06T05:20:29;97537.25;;;27.96;74.56
37856;BME280;23694;43.274;26.924;2023-08-06T05:22:59;97538.25;;;29.83;64.65
37856;BME280;23694;43.274;26.924;2023-08-06T05:25:31;97545.16;;;29.64;65.29
37856;BME280;23694;43.274;26.924;2023-08-06T05:27:59;97525.16;;;28.64;68.65
37856;BME280;23694;43.274;26.924;2023-08-06T05:30:30;97531.94;;;28.23;69.81
37856;BME280;23694;43.274;26.924;2023-08-06T05:33:00;97534.78;;;26.72;77.67
37856;BME280;23694;43.274;26.924;2023-08-06T05:35:33;97522.19;;;26.04;82.41
37856;BME280;23694;43.274;26.924;2023-08-06T05:38:17;97520.00;;;25.77;84.27
37856;BME280;23694;43.274;26.924;2023-08-06T05:40:52;97522.22;;;26.20;81.90
37856;BME280;23694;43.274;26.924;2023-08-06T05:43:33;97517.75;;;26.38;81.15
37856;BME280;23694;43.274;26.924;2023-08-06T05:46:12;97517.44;;;26.96;78.99
37856;BME280;23694;43.274;26.924;2023-08-06T05:48:46;97518.06;;;27.32;76.70
37856;BME280;23694;43.274;26.924;2023-08-06T05:51:19;97521.59;;;26.87;78.39
37856;BME280;23694;43.274;26.924;2023-08-06T05:53:48;97511.25;;;25.82;85.14
37856;BME280;23694;43.274;26.924;2023-08-06T05:56:16;97509.56;;;26.04;83.98
37856;BME280;23694;43.274;26.924;2023-08-06T05:58:48;97514.84;;;25.29;87.72
37856;BME280;23694;43.274;26.924;2023-08-06T06:01:23;97509.97;;;25.14;89.57
37856;BME280;23694;43.274;26.924;2023-08-06T06:03:55;97508.00;;;25.56;87.88
37856;BME280;23694;43.274;26.924;2023-08-06T06:06:36;97515.53;;;25.95;86.11
37856;BME280;23694;43.274;26.924;2023-08-06T06:09:19;97509.56;;;26.04;83.74
37856;BME280;23694;43.274;26.924;2023-08-06T06:12:12;97517.38;;;24.89;92.24
37856;BME280;23694;43.274;26.924;2023-08-06T06:14:42;97515.22;;;25.56;88.45
37856;BME280;23694;43.274;26.924;2023-08-06T06:17:19;97513.22;;;26.27;83.91
37856;BME280;23694;43.274;26.924;2023-08-06T06:19:50;97510.78;;;26.53;82.23
37856;BME280;23694;43.274;26.924;2023-08-06T06:22:31;97513.53;;;26.42;83.21
37856;BME280;23694;43.274;26.924;2023-08-06T06:25:07;97504.00;;;25.82;85.44
37856;BME280;23694;43.274;26.924;2023-08-06T06:27:51;97514.63;;;26.29;83.00
37856;BME280;23694;43.274;26.924;2023-08-06T06:30:29;97503.25;;;26.10;84.68
37856;BME280;23694;43.274;26.924;2023-08-06T06:33:05;97509.72;;;26.83;80.89
37856;BME280;23694;43.274;26.924;2023-08-06T06:35:42;97504.84;;;27.47;76.55
37856;BME280;23694;43.274;26.924;2023-08-06T06:38:12;97496.94;;;27.79;75.25
37856;BME280;23694;43.274;26.924;2023-08-06T06:40:40;97505.97;;;27.68;75.00
37856;BME280;23694;43.274;26.924;2023-08-06T06:43:10;97513.25;;;27.34;76.21
37856;BME280;23694;43.274;26.924;2023-08-06T06:45:46;97505.34;;;27.27;76.93
37856;BME280;23694;43.274;26.924;2023-08-06T06:48:13;97498.91;;;27.28;76.35
37856;BME280;23694;43.274;26.924;2023-08-06T06:50:42;97505.56;;;26.92;78.39
37856;BME280;23694;43.274;26.924;2023-08-06T06:53:10;97494.84;;;26.47;80.48
37856;BME280;23694;43.274;26.924;2023-08-06T06:55:44;97491.47;;;26.85;78.92
37856;BME280;23694;43.274;26.924;2023-08-06T06:58:21;97495.38;;;27.28;76.62
37856;BME280;23694;43.274;26.924;2023-08-06T07:00:57;97495.31;;;26.72;78.56
37856;BME280;23694;43.274;26.924;2023-08-06T07:03:39;97494.19;;;25.88;84.07
37856;BME280;23694;43.274;26.924;2023-08-06T07:06:24;97497.44;;;26.87;78.70
37856;BME280;23694;43.274;26.924;2023-08-06T07:09:06;97490.81;;;27.45;75.51
37856;BME280;23694;43.274;26.924;2023-08-06T07:11:47;97494.97;;;28.13;72.24
37856;BME280;23694;43.274;26.924;2023-08-06T07:14:32;97497.81;;;27.85;73.27
37856;BME280;23694;43.274;26.924;2023-08-06T07:17:05;97507.59;;;28.13;71.77
37856;BME280;23694;43.274;26.924;2023-08-06T07:19:46;97519.56;;;28.22;71.28
37856;BME280;23694;43.274;26.924;2023-08-06T07:22:32;97512.63;;;28.26;70.19
37856;BME280;23694;43.274;26.924;2023-08-06T07:25:12;97510.63;;;28.65;69.03
37856;BME280;23694;43.274;26.924;2023-08-06T07:27:51;97508.44;;;28.62;68.73
37856;BME280;23694;43.274;26.924;2023-08-06T07:30:28;97506.78;;;27.90;70.75
37856;BME280;23694;43.274;26.924;2023-08-06T07:33:02;97510.78;;;27.88;71.47
37856;BME280;23694;43.274;26.924;2023-08-06T07:35:44;97508.56;;;28.23;70.32
37856;BME280;23694;43.274;26.924;2023-08-06T07:38:13;97500.72;;;27.06;74.94
37856;BME280;23694;43.274;26.924;2023-08-06T07:40:40;97501.53;;;27.06;74.31
37856;BME280;23694;43.274;26.924;2023-08-06T07:43:12;97505.44;;;27.32;73.16
37856;BME280;23694;43.274;26.924;2023-08-06T07:45:57;97502.22;;;28.13;69.82
37856;BME280;23694;43.274;26.924;2023-08-06T07:48:25;97502.22;;;28.34;67.68
37856;BME280;23694;43.274;26.924;2023-08-06T07:50:57;97512.88;;;28.51;66.96
37856;BME280;23694;43.274;26.924;2023-08-06T07:53:37;97508.63;;;28.82;65.45
37856;BME280;23694;43.274;26.924;2023-08-06T07:56:15;97514.47;;;29.01;64.20
37856;BME280;23694;43.274;26.924;2023-08-06T07:58:48;97514.69;;;28.94;63.84
37856;BME280;23694;43.274;26.924;2023-08-06T08:01:16;97515.25;;;28.96;64.24
37856;BME280;23694;43.274;26.924;2023-08-06T08:03:48;97512.22;;;27.95;68.12
37856;BME280;23694;43.274;26.924;2023-08-06T08:06:17;97519.78;;;28.64;65.96
37856;BME280;23694;43.274;26.924;2023-08-06T08:08:48;97524.34;;;28.90;64.81
37856;BME280;23694;43.274;26.924;2023-08-06T08:11:23;97528.75;;;29.33;62.99
37856;BME280;23694;43.274;26.924;2023-08-06T08:13:58;97522.97;;;28.88;63.56
37856;BME280;23694;43.274;26.924;2023-08-06T08:16:42;97508.09;;;28.09;66.06
37856;BME280;23694;43.274;26.924;2023-08-06T08:19:18;97503.84;;;27.70;70.21
37856;BME280;23694;43.274;26.924;2023-08-06T08:21:52;97506.59;;;28.67;66.50
37856;BME280;23694;43.274;26.924;2023-08-06T08:24:31;97508.09;;;29.12;64.04
37856;BME280;23694;43.274;26.924;2023-08-06T08:27:05;97503.50;;;29.13;64.28
37856;BME280;23694;43.274;26.924;2023-08-06T08:29:35;97507.75;;;28.77;65.54
37856;BME280;23694;43.274;26.924;2023-08-06T08:32:04;97507.75;;;29.41;63.50
37856;BME280;23694;43.274;26.924;2023-08-06T08:34:51;97509.53;;;29.25;63.27
37856;BME280;23694;43.274;26.924;2023-08-06T08:37:25;97498.81;;;28.22;66.40
37856;BME280;23694;43.274;26.924;2023-08-06T08:39:59;97491.44;;;28.13;66.59
37856;BME280;23694;43.274;26.924;2023-08-06T08:42:38;97490.03;;;28.81;65.16
37856;BME280;23694;43.274;26.924;2023-08-06T08:45:36;97495.66;;;29.43;62.73
37856;BME280;23694;43.274;26.924;2023-08-06T08:48:11;97491.22;;;28.63;64.26
37856;BME280;23694;43.274;26.924;2023-08-06T08:50:50;97496.66;;;29.00;63.36
37856;BME280;23694;43.274;26.924;2023-08-06T08:53:21;97487.44;;;28.91;63.29
37856;BME280;23694;43.274;26.924;2023-08-06T08:56:00;97479.63;;;29.69;61.15
37856;BME280;23694;43.274;26.924;2023-08-06T08:58:39;97481.53;;;30.51;57.87
37856;BME280;23694;43.274;26.924;2023-08-06T09:01:23;97489.97;;;31.10;57.02
37856;BME280;23694;43.274;26.924;2023-08-06T09:03:58;97489.94;;;31.56;53.08
37856;BME280;23694;43.274;26.924;2023-08-06T09:06:40;97485.16;;;32.17;51.77
37856;BME280;23694;43.274;26.924;2023-08-06T09:09:35;97482.84;;;31.80;51.27
37856;BME280;23694;43.274;26.924;2023-08-06T09:12:26;97484.78;;;31.65;51.50
37856;BME280;23694;43.274;26.924;2023-08-06T09:14:58;97476.84;;;32.48;48.85
37856;BME280;23694;43.274;26.924;2023-08-06T09:17:37;97481.72;;;31.97;49.38
37856;BME280;23694;43.274;26.924;2023-08-06T09:20:21;97473.59;;;31.97;49.98
37856;BME280;23694;43.274;26.924;2023-08-06T09:22:53;97473.56;;;32.07;50.33
37856;BME280;23694;43.274;26.924;2023-08-06T09:25:25;97465.88;;;32.29;49.45
37856;BME280;23694;43.274;26.924;2023-08-06T09:27:55;97464.00;;;32.25;49.57
37856;BME280;23694;43.274;26.924;2023-08-06T09:30:32;97455.41;;;32.57;48.09
37856;BME280;23694;43.274;26.924;2023-08-06T09:33:14;97452.31;;;32.73;47.74
37856;BME280;23694;43.274;26.924;2023-08-06T09:35:46;97444.16;;;32.73;47.29
37856;BME280;23694;43.274;26.924;2023-08-06T09:38:19;97431.31;;;32.50;47.79
37856;BME280;23694;43.274;26.924;2023-08-06T09:40:52;97429.38;;;32.61;46.94
37856;BME280;23694;43.274;26.924;2023-08-06T09:43:26;97419.03;;;32.63;47.24
37856;BME280;23694;43.274;26.924;2023-08-06T09:46:00;97408.41;;;32.71;47.44
37856;BME280;23694;43.274;26.924;2023-08-06T09:48:31;97409.72;;;32.79;46.87
37856;BME280;23694;43.274;26.924;2023-08-06T09:51:00;97420.94;;;32.96;46.32
37856;BME280;23694;43.274;26.924;2023-08-06T09:53:32;97408.91;;;33.07;45.25
37856;BME280;23694;43.274;26.924;2023-08-06T09:56:02;97408.19;;;32.97;44.15
37856;BME280;23694;43.274;26.924;2023-08-06T09:58:31;97402.34;;;32.85;43.67
37856;BME280;23694;43.274;26.924;2023-08-06T10:01:00;97394.44;;;32.88;44.00
37856;BME280;23694;43.274;26.924;2023-08-06T10:03:33;97395.97;;;32.65;43.02
37856;BME280;23694;43.274;26.924;2023-08-06T10:06:01;97381.81;;;32.39;44.31
37856;BME280;23694;43.274;26.924;2023-08-06T10:08:36;97385.38;;;32.35;45.31
37856;BME280;23694;43.274;26.924;2023-08-06T10:11:10;97386.75;;;32.32;45.49
37856;BME280;23694;43.274;26.924;2023-08-06T10:13:41;97378.09;;;32.30;46.29
37856;BME280;23694;43.274;26.924;2023-08-06T10:16:17;97377.59;;;32.18;47.02
37856;BME280;23694;43.274;26.924;2023-08-06T10:18:52;97374.50;;;31.96;46.80
37856;BME280;23694;43.274;26.924;2023-08-06T10:21:30;97381.28;;;31.93;46.08
37856;BME280;23694;43.274;26.924;2023-08-06T10:23:58;97385.03;;;32.02;45.46
37856;BME280;23694;43.274;26.924;2023-08-06T10:26:30;97395.56;;;32.04;45.16
37856;BME280;23694;43.274;26.924;2023-08-06T10:28:58;97420.13;;;32.17;44.96
37856;BME280;23694;43.274;26.924;2023-08-06T10:31:55;97501.19;;;32.04;45.76
37856;BME280;23694;43.274;26.924;2023-08-06T10:37:15;97474.44;;;29.20;45.16
37856;BME280;23694;43.274;26.924;2023-08-06T10:39:56;97452.97;;;27.90;49.18
37856;BME280;23694;43.274;26.924;2023-08-06T10:42:35;97434.06;;;27.25;52.66
37856;BME280;23694;43.274;26.924;2023-08-06T10:51:33;97452.13;;;26.62;53.59
37856;BME280;23694;43.274;26.924;2023-08-06T10:57:08;97436.94;;;26.84;52.67
37856;BME280;23694;43.274;26.924;2023-08-06T11:00:05;97452.97;;;27.13;52.11
37856;BME280;23694;43.274;26.924;2023-08-06T11:02:52;97447.81;;;27.45;50.74
37856;BME280;23694;43.274;26.924;2023-08-06T11:09:19;97409.91;;;27.46;49.97
37856;BME280;23694;43.274;26.924;2023-08-06T11:12:25;97431.25;;;27.53;49.00
37856;BME280;23694;43.274;26.924;2023-08-06T11:15:19;97463.50;;;27.53;47.97
37856;BME280;23694;43.274;26.924;2023-08-06T11:17:49;97455.38;;;27.48;48.25
37856;BME280;23694;43.274;26.924;2023-08-06T11:20:31;97450.28;;;27.13;48.19
37856;BME280;23694;43.274;26.924;2023-08-06T11:23:01;97457.13;;;26.87;49.22
37856;BME280;23694;43.274;26.924;2023-08-06T11:25:40;97437.41;;;26.48;50.54
37856;BME280;23694;43.274;26.924;2023-08-06T11:28:19;97442.78;;;26.48;54.60
37856;BME280;23694;43.274;26.924;2023-08-06T11:30:56;97458.22;;;26.41;58.70
37856;BME280;23694;43.274;26.924;2023-08-06T11:33:38;97449.13;;;26.30;62.45
37856;BME280;23694;43.274;26.924;2023-08-06T11:36:06;97433.75;;;25.97;66.79
37856;BME280;23694;43.274;26.924;2023-08-06T11:38:47;97379.28;;;25.68;67.60
37856;BME280;23694;43.274;26.924;2023-08-06T11:44:57;97432.81;;;23.80;80.53
37856;BME280;23694;43.274;26.924;2023-08-06T11:51:02;97534.94;;;23.70;90.32
37856;BME280;23694;43.274;26.924;2023-08-06T11:53:58;97523.13;;;24.14;90.80
37856;BME280;23694;43.274;26.924;2023-08-06T11:59:51;97515.94;;;24.75;85.99
37856;BME280;23694;43.274;26.924;2023-08-06T12:02:38;97519.47;;;24.87;82.31
37856;BME280;23694;43.274;26.924;2023-08-06T12:05:40;97504.25;;;25.11;82.82
37856;BME280;23694;43.274;26.924;2023-08-06T12:14:41;97481.06;;;25.75;78.47
37856;BME280;23694;43.274;26.924;2023-08-06T12:17:43;97497.38;;;25.62;79.78
37856;BME280;23694;43.274;26.924;2023-08-06T12:20:35;97501.59;;;25.57;80.59
37856;BME280;23694;43.274;26.924;2023-08-06T12:23:26;97491.66;;;25.58;81.17
37856;BME280;23694;43.274;26.924;2023-08-06T12:26:23;97527.31;;;25.23;85.61
37856;BME280;23694;43.274;26.924;2023-08-06T12:29:42;97531.19;;;25.51;85.83
37856;BME280;23694;43.274;26.924;2023-08-06T12:34:45;97544.53;;;26.21;82.81
37856;BME280;23694;43.274;26.924;2023-08-06T12:37:16;97545.22;;;26.57;80.46
37856;BME280;23694;43.274;26.924;2023-08-06T12:39:51;97562.16;;;26.57;80.28
37856;BME280;23694;43.274;26.924;2023-08-06T12:42:54;97547.47;;;26.48;82.10
37856;BME280;23694;43.274;26.924;2023-08-06T12:45:57;97549.75;;;26.28;82.05
37856;BME280;23694;43.274;26.924;2023-08-06T12:49:05;97545.38;;;26.10;82.94
37856;BME280;23694;43.274;26.924;2023-08-06T12:51:53;97559.44;;;26.29;81.60
37856;BME280;23694;43.274;26.924;2023-08-06T12:54:55;97528.09;;;26.46;80.76
37856;BME280;23694;43.274;26.924;2023-08-06T12:57:31;97534.91;;;26.65;79.36
37856;BME280;23694;43.274;26.924;2023-08-06T13:00:14;97514.09;;;26.72;78.08
37856;BME280;23694;43.274;26.924;2023-08-06T13:03:14;97493.19;;;26.74;77.98
37856;BME280;23694;43.274;26.924;2023-08-06T13:05:50;97491.50;;;27.02;75.79
37856;BME280;23694;43.274;26.924;2023-08-06T13:08:17;97486.63;;;27.15;74.21
37856;BME280;23694;43.274;26.924;2023-08-06T13:11:05;97484.31;;;27.24;73.73
37856;BME280;23694;43.274;26.924;2023-08-06T13:13:44;97465.56;;;27.29;72.93
37856;BME280;23694;43.274;26.924;2023-08-06T13:19:30;97462.66;;;27.14;71.53
37856;BME280;23694;43.274;26.924;2023-08-06T13:22:32;97448.56;;;27.40;68.53
37856;BME280;23694;43.274;26.924;2023-08-06T13:25:09;97453.06;;;27.57;68.47
37856;BME280;23694;43.274;26.924;2023-08-06T13:27:41;97451.63;;;27.49;66.10
37856;BME280;23694;43.274;26.924;2023-08-06T13:30:20;97441.88;;;27.26;68.21
37856;BME280;23694;43.274;26.924;2023-08-06T13:32:55;97451.38;;;27.51;66.06
37856;BME280;23694;43.274;26.924;2023-08-06T13:35:28;97443.28;;;27.67;65.89
37856;BME280;23694;43.274;26.924;2023-08-06T13:38:03;97446.16;;;27.61;65.30
37856;BME280;23694;43.274;26.924;2023-08-06T13:40:32;97448.31;;;27.25;67.26
37856;BME280;23694;43.274;26.924;2023-08-06T13:43:04;97461.69;;;27.59;65.26
37856;BME280;23694;43.274;26.924;2023-08-06T13:45:34;97467.59;;;27.77;64.90
37856;BME280;23694;43.274;26.924;2023-08-06T13:48:09;97471.81;;;27.68;63.98
37856;BME280;23694;43.274;26.924;2023-08-06T13:50:48;97469.22;;;27.78;62.73
37856;BME280;23694;43.274;26.924;2023-08-06T13:53:42;97474.44;;;27.63;64.05
37856;BME280;23694;43.274;26.924;2023-08-06T14:08:11;97494.94;;;27.91;63.83
37856;BME280;23694;43.274;26.924;2023-08-06T14:11:04;97486.56;;;27.88;64.10
37856;BME280;23694;43.274;26.924;2023-08-06T14:17:04;97497.22;;;27.99;62.33
37856;BME280;23694;43.274;26.924;2023-08-06T14:19:47;97485.44;;;28.05;61.77
37856;BME280;23694;43.274;26.924;2023-08-06T14:22:17;97486.22;;;28.01;62.25
37856;BME280;23694;43.274;26.924;2023-08-06T14:25:17;97503.66;;;27.98;62.69
37856;BME280;23694;43.274;26.924;2023-08-06T14:27:52;97501.78;;;27.60;62.36
37856;BME280;23694;43.274;26.924;2023-08-06T14:34:05;97514.31;;;27.33;63.60
37856;BME280;23694;43.274;26.924;2023-08-06T14:36:55;97524.47;;;27.14;63.95
37856;BME280;23694;43.274;26.924;2023-08-06T14:42:46;97537.72;;;26.87;62.68
37856;BME280;23694;43.274;26.924;2023-08-06T14:51:50;97540.38;;;26.42;62.20
37856;BME280;23694;43.274;26.924;2023-08-06T15:04:06;97541.00;;;26.61;61.25
37856;BME280;23694;43.274;26.924;2023-08-06T15:06:59;97547.66;;;26.58;60.34
37856;BME280;23694;43.274;26.924;2023-08-06T15:09:32;97548.81;;;26.62;61.04
37856;BME280;23694;43.274;26.924;2023-08-06T15:12:04;97551.06;;;26.53;60.46
37856;BME280;23694;43.274;26.924;2023-08-06T15:14:47;97556.59;;;26.47;60.98
37856;BME280;23694;43.274;26.924;2023-08-06T15:20:20;97561.09;;;26.18;60.49